sensor_id;sensor_type;location;lat;lon;timestamp;temperature;humidity
318;DHT22;146;53.448;10.228;2023-10-08T00:02:11;12.40;1.00
318;DHT22;146;53.448;10.228;2023-10-08T00:04:50;12.50;1.00
318;DHT22;146;53.448;10.228;2023-10-08T00:07:17;12.40;1.00
318;DHT22;146;53.448;10.228;2023-10-08T00:09:48;12.40;1.00
318;DHT22;146;53.448;10.228;2023-10-08T00:12:22;12.40;1.00
318;DHT22;146;53.448;10.228;2023-10-08T00:14:52;12.30;1.00
318;DHT22;146;53.448;10.228;2023-10-08T00:17:19;12.40;1.00
318;DHT22;146;53.448;10.228;2023-10-08T00:19:46;12.40;1.00
318;DHT22;146;53.448;10.228;2023-10-08T00:22:26;12.40;1.00
318;DHT22;146;53.448;10.228;2023-10-08T00:24:56;12.40;1.00
318;DHT22;146;53.448;10.228;2023-10-08T00:27:23;12.40;1.00
318;DHT22;146;53.448;10.228;2023-10-08T00:29:51;12.50;1.00
318;DHT22;146;53.448;10.228;2023-10-08T00:32:18;12.40;1.00
318;DHT22;146;53.448;10.228;2023-10-08T00:34:59;12.50;1.00
318;DHT22;146;53.448;10.228;2023-10-08T00:37:28;12.50;1.00
318;DHT22;146;53.448;10.228;2023-10-08T00:39:57;12.40;1.00
318;DHT22;146;53.448;10.228;2023-10-08T00:42:25;12.50;1.00
318;DHT22;146;53.448;10.228;2023-10-08T00:44:54;12.50;1.00
318;DHT22;146;53.448;10.228;2023-10-08T00:47:26;12.50;1.00
318;DHT22;146;53.448;10.228;2023-10-08T00:49:59;12.40;1.00
318;DHT22;146;53.448;10.228;2023-10-08T00:52:37;12.30;1.00
318;DHT22;146;53.448;10.228;2023-10-08T00:55:17;12.30;1.00
318;DHT22;146;53.448;10.228;2023-10-08T00:57:58;12.30;1.00
318;DHT22;146;53.448;10.228;2023-10-08T01:00:35;12.40;1.00
318;DHT22;146;53.448;10.228;2023-10-08T01:03:07;12.30;1.00
318;DHT22;146;53.448;10.228;2023-10-08T01:05:49;12.30;1.00
318;DHT22;146;53.448;10.228;2023-10-08T01:08:16;12.30;1.00
318;DHT22;146;53.448;10.228;2023-10-08T01:10:49;12.30;1.00
318;DHT22;146;53.448;10.228;2023-10-08T01:13:26;12.40;1.00
318;DHT22;146;53.448;10.228;2023-10-08T01:16:00;12.30;1.00
318;DHT22;146;53.448;10.228;2023-10-08T01:18:30;12.40;1.00
318;DHT22;146;53.448;10.228;2023-10-08T01:21:00;12.30;1.00
318;DHT22;146;53.448;10.228;2023-10-08T01:23:35;12.30;1.00
318;DHT22;146;53.448;10.228;2023-10-08T01:26:07;12.40;1.00
318;DHT22;146;53.448;10.228;2023-10-08T01:28:40;12.30;1.00
318;DHT22;146;53.448;10.228;2023-10-08T01:31:15;12.30;1.00
318;DHT22;146;53.448;10.228;2023-10-08T01:33:42;12.40;1.00
318;DHT22;146;53.448;10.228;2023-10-08T01:36:25;12.30;1.00
318;DHT22;146;53.448;10.228;2023-10-08T01:38:56;12.40;1.00
318;DHT22;146;53.448;10.228;2023-10-08T01:41:23;12.40;1.00
318;DHT22;146;53.448;10.228;2023-10-08T01:43:58;12.40;1.00
318;DHT22;146;53.448;10.228;2023-10-08T01:46:28;12.50;1.00
318;DHT22;146;53.448;10.228;2023-10-08T01:49:03;12.50;1.00
318;DHT22;146;53.448;10.228;2023-10-08T01:51:44;12.60;1.00
318;DHT22;146;53.448;10.228;2023-10-08T01:54:16;12.50;1.00
318;DHT22;146;53.448;10.228;2023-10-08T01:56:49;12.50;1.00
318;DHT22;146;53.448;10.228;2023-10-08T01:59:16;12.40;1.00
318;DHT22;146;53.448;10.228;2023-10-08T02:01:49;12.40;1.00
318;DHT22;146;53.448;10.228;2023-10-08T02:04:24;12.40;1.00
318;DHT22;146;53.448;10.228;2023-10-08T02:06:58;12.60;1.00
318;DHT22;146;53.448;10.228;2023-10-08T02:09:27;12.60;1.00
318;DHT22;146;53.448;10.228;2023-10-08T02:11:54;12.60;1.00
318;DHT22;146;53.448;10.228;2023-10-08T02:14:24;12.70;1.00
318;DHT22;146;53.448;10.228;2023-10-08T02:16:54;12.70;1.00
318;DHT22;146;53.448;10.228;2023-10-08T02:19:29;12.70;1.00
318;DHT22;146;53.448;10.228;2023-10-08T02:22:02;12.60;1.00
318;DHT22;146;53.448;10.228;2023-10-08T02:24:38;12.60;1.00
318;DHT22;146;53.448;10.228;2023-10-08T02:27:06;12.60;1.00
318;DHT22;146;53.448;10.228;2023-10-08T02:29:33;12.70;1.00
318;DHT22;146;53.448;10.228;2023-10-08T02:32:02;12.70;1.00
318;DHT22;146;53.448;10.228;2023-10-08T02:34:50;12.70;1.00
318;DHT22;146;53.448;10.228;2023-10-08T02:37:24;12.70;1.00
318;DHT22;146;53.448;10.228;2023-10-08T02:57:14;12.70;1.00
318;DHT22;146;53.448;10.228;2023-10-08T03:03:56;12.60;1.00
318;DHT22;146;53.448;10.228;2023-10-08T03:09:52;12.50;1.00
318;DHT22;146;53.448;10.228;2023-10-08T03:13:35;12.50;1.00
318;DHT22;146;53.448;10.228;2023-10-08T03:19:52;12.50;1.00
318;DHT22;146;53.448;10.228;2023-10-08T03:23:00;12.60;1.00
318;DHT22;146;53.448;10.228;2023-10-08T03:25:37;12.50;1.00
318;DHT22;146;53.448;10.228;2023-10-08T03:31:56;12.60;1.00
318;DHT22;146;53.448;10.228;2023-10-08T03:41:59;12.70;1.00
318;DHT22;146;53.448;10.228;2023-10-08T03:48:24;12.60;1.00
318;DHT22;146;53.448;10.228;2023-10-08T03:51:06;12.50;1.00
318;DHT22;146;53.448;10.228;2023-10-08T03:54:16;12.50;1.00
318;DHT22;146;53.448;10.228;2023-10-08T03:57:10;12.50;1.00
318;DHT22;146;53.448;10.228;2023-10-08T03:59:47;12.50;1.00
318;DHT22;146;53.448;10.228;2023-10-08T04:02:14;12.50;1.00
318;DHT22;146;53.448;10.228;2023-10-08T04:04:57;12.40;1.00
318;DHT22;146;53.448;10.228;2023-10-08T04:07:46;12.40;1.00
318;DHT22;146;53.448;10.228;2023-10-08T04:10:45;12.40;1.00
318;DHT22;146;53.448;10.228;2023-10-08T04:13:30;12.50;1.00
318;DHT22;146;53.448;10.228;2023-10-08T04:16:00;12.50;1.00
318;DHT22;146;53.448;10.228;2023-10-08T04:18:37;12.40;1.00
318;DHT22;146;53.448;10.228;2023-10-08T04:21:10;12.40;1.00
318;DHT22;146;53.448;10.228;2023-10-08T04:23:42;12.40;1.00
318;DHT22;146;53.448;10.228;2023-10-08T04:26:10;12.40;1.00
318;DHT22;146;53.448;10.228;2023-10-08T04:28:38;12.40;1.00
318;DHT22;146;53.448;10.228;2023-10-08T04:31:06;12.40;1.00
318;DHT22;146;53.448;10.228;2023-10-08T04:33:53;12.40;1.00
318;DHT22;146;53.448;10.228;2023-10-08T04:36:24;12.40;1.00
318;DHT22;146;53.448;10.228;2023-10-08T04:38:52;12.40;1.00
318;DHT22;146;53.448;10.228;2023-10-08T04:41:26;12.40;1.00
318;DHT22;146;53.448;10.228;2023-10-08T04:43:53;12.40;1.00
318;DHT22;146;53.448;10.228;2023-10-08T04:46:24;12.30;1.00
318;DHT22;146;53.448;10.228;2023-10-08T04:49:12;12.40;1.00
318;DHT22;146;53.448;10.228;2023-10-08T04:51:54;12.30;1.00
318;DHT22;146;53.448;10.228;2023-10-08T04:54:27;12.30;1.00
318;DHT22;146;53.448;10.228;2023-10-08T04:56:58;12.30;1.00
318;DHT22;146;53.448;10.228;2023-10-08T04:59:25;12.30;1.00
318;DHT22;146;53.448;10.228;2023-10-08T05:02:01;12.30;1.00
318;DHT22;146;53.448;10.228;2023-10-08T05:04:48;12.30;1.00
318;DHT22;146;53.448;10.228;2023-10-08T05:07:40;12.30;1.00
318;DHT22;146;53.448;10.228;2023-10-08T05:10:29;12.30;1.00
318;DHT22;146;53.448;10.228;2023-10-08T05:13:24;12.30;1.00
318;DHT22;146;53.448;10.228;2023-10-08T05:16:07;12.30;1.00
318;DHT22;146;53.448;10.228;2023-10-08T05:18:46;12.30;1.00
318;DHT22;146;53.448;10.228;2023-10-08T05:21:31;12.30;1.00
318;DHT22;146;53.448;10.228;2023-10-08T05:24:18;12.30;1.00
318;DHT22;146;53.448;10.228;2023-10-08T05:26:53;12.20;1.00
318;DHT22;146;53.448;10.228;2023-10-08T05:29:46;12.20;1.00
318;DHT22;146;53.448;10.228;2023-10-08T05:32:37;12.20;1.00
318;DHT22;146;53.448;10.228;2023-10-08T05:35:11;12.20;1.00
318;DHT22;146;53.448;10.228;2023-10-08T05:38:00;12.20;1.00
318;DHT22;146;53.448;10.228;2023-10-08T05:40:46;12.10;1.00
318;DHT22;146;53.448;10.228;2023-10-08T05:43:32;12.10;1.00
318;DHT22;146;53.448;10.228;2023-10-08T05:46:16;12.10;1.00
318;DHT22;146;53.448;10.228;2023-10-08T05:49:00;12.10;1.00
318;DHT22;146;53.448;10.228;2023-10-08T05:51:28;12.10;1.00
318;DHT22;146;53.448;10.228;2023-10-08T05:54:11;12.00;1.00
318;DHT22;146;53.448;10.228;2023-10-08T05:56:52;12.00;1.00
318;DHT22;146;53.448;10.228;2023-10-08T05:59:32;12.00;1.00
318;DHT22;146;53.448;10.228;2023-10-08T06:02:05;11.90;1.00
318;DHT22;146;53.448;10.228;2023-10-08T06:04:51;11.90;1.00
318;DHT22;146;53.448;10.228;2023-10-08T06:07:36;11.80;1.00
318;DHT22;146;53.448;10.228;2023-10-08T06:10:13;11.80;1.00
318;DHT22;146;53.448;10.228;2023-10-08T06:13:12;11.80;1.00
318;DHT22;146;53.448;10.228;2023-10-08T06:15:48;11.70;1.00
318;DHT22;146;53.448;10.228;2023-10-08T06:18:32;11.70;1.00
318;DHT22;146;53.448;10.228;2023-10-08T06:21:00;11.60;1.00
318;DHT22;146;53.448;10.228;2023-10-08T06:23:46;11.60;1.00
318;DHT22;146;53.448;10.228;2023-10-08T06:26:22;11.50;1.00
318;DHT22;146;53.448;10.228;2023-10-08T06:28:54;11.50;1.00
318;DHT22;146;53.448;10.228;2023-10-08T06:31:24;11.50;1.00
318;DHT22;146;53.448;10.228;2023-10-08T06:33:57;11.40;1.00
318;DHT22;146;53.448;10.228;2023-10-08T06:36:29;11.40;1.00
318;DHT22;146;53.448;10.228;2023-10-08T06:38:59;11.40;1.00
318;DHT22;146;53.448;10.228;2023-10-08T06:41:26;11.40;1.00
318;DHT22;146;53.448;10.228;2023-10-08T06:44:00;11.40;1.00
318;DHT22;146;53.448;10.228;2023-10-08T06:46:29;11.40;1.00
318;DHT22;146;53.448;10.228;2023-10-08T06:49:03;11.40;1.00
318;DHT22;146;53.448;10.228;2023-10-08T06:51:31;11.40;1.00
318;DHT22;146;53.448;10.228;2023-10-08T06:54:01;11.40;1.00
318;DHT22;146;53.448;10.228;2023-10-08T06:56:32;11.40;1.00
318;DHT22;146;53.448;10.228;2023-10-08T06:59:06;11.40;1.00
318;DHT22;146;53.448;10.228;2023-10-08T07:01:38;11.40;1.00
318;DHT22;146;53.448;10.228;2023-10-08T07:04:12;11.50;1.00
318;DHT22;146;53.448;10.228;2023-10-08T07:06:42;11.50;1.00
318;DHT22;146;53.448;10.228;2023-10-08T07:09:13;11.50;1.00
318;DHT22;146;53.448;10.228;2023-10-08T07:11:49;11.50;1.00
318;DHT22;146;53.448;10.228;2023-10-08T07:14:25;11.50;1.00
318;DHT22;146;53.448;10.228;2023-10-08T07:16:54;11.50;1.00
318;DHT22;146;53.448;10.228;2023-10-08T07:19:31;11.60;1.00
318;DHT22;146;53.448;10.228;2023-10-08T07:22:02;11.60;1.00
318;DHT22;146;53.448;10.228;2023-10-08T07:24:34;11.60;1.00
318;DHT22;146;53.448;10.228;2023-10-08T07:27:05;11.70;1.00
318;DHT22;146;53.448;10.228;2023-10-08T07:29:36;11.60;1.00
318;DHT22;146;53.448;10.228;2023-10-08T07:32:03;11.60;1.00
318;DHT22;146;53.448;10.228;2023-10-08T07:34:38;11.60;1.00
318;DHT22;146;53.448;10.228;2023-10-08T07:37:06;11.60;1.00
318;DHT22;146;53.448;10.228;2023-10-08T07:39:40;11.70;1.00
318;DHT22;146;53.448;10.228;2023-10-08T07:42:15;11.70;1.00
318;DHT22;146;53.448;10.228;2023-10-08T07:44:48;11.70;1.00
318;DHT22;146;53.448;10.228;2023-10-08T07:47:19;11.80;1.00
318;DHT22;146;53.448;10.228;2023-10-08T07:49:47;11.80;1.00
318;DHT22;146;53.448;10.228;2023-10-08T07:52:14;11.90;1.00
318;DHT22;146;53.448;10.228;2023-10-08T07:54:44;12.00;1.00
318;DHT22;146;53.448;10.228;2023-10-08T07:57:11;11.90;1.00
318;DHT22;146;53.448;10.228;2023-10-08T07:59:42;12.00;1.00
318;DHT22;146;53.448;10.228;2023-10-08T08:02:14;12.10;1.00
318;DHT22;146;53.448;10.228;2023-10-08T08:04:43;12.00;1.00
318;DHT22;146;53.448;10.228;2023-10-08T08:07:11;12.10;1.00
318;DHT22;146;53.448;10.228;2023-10-08T08:09:42;12.10;1.00
318;DHT22;146;53.448;10.228;2023-10-08T08:12:16;12.10;1.00
318;DHT22;146;53.448;10.228;2023-10-08T08:14:51;12.20;1.00
318;DHT22;146;53.448;10.228;2023-10-08T08:17:24;12.10;1.00
318;DHT22;146;53.448;10.228;2023-10-08T08:20:06;12.20;1.00
318;DHT22;146;53.448;10.228;2023-10-08T08:22:47;12.10;1.00
318;DHT22;146;53.448;10.228;2023-10-08T08:25:25;12.10;1.00
318;DHT22;146;53.448;10.228;2023-10-08T08:28:14;12.20;1.00
318;DHT22;146;53.448;10.228;2023-10-08T08:30:48;12.10;1.00
318;DHT22;146;53.448;10.228;2023-10-08T08:33:42;12.10;1.00
318;DHT22;146;53.448;10.228;2023-10-08T08:36:50;12.20;1.00
318;DHT22;146;53.448;10.228;2023-10-08T08:39:25;12.30;1.00
318;DHT22;146;53.448;10.228;2023-10-08T08:42:03;12.30;1.00
318;DHT22;146;53.448;10.228;2023-10-08T08:44:32;12.40;1.00
318;DHT22;146;53.448;10.228;2023-10-08T08:47:11;12.40;1.00
318;DHT22;146;53.448;10.228;2023-10-08T08:50:03;12.40;1.00
318;DHT22;146;53.448;10.228;2023-10-08T08:52:42;12.40;1.00
318;DHT22;146;53.448;10.228;2023-10-08T08:55:15;12.50;1.00
318;DHT22;146;53.448;10.228;2023-10-08T08:57:46;12.50;1.00
318;DHT22;146;53.448;10.228;2023-10-08T09:00:33;12.60;1.00
318;DHT22;146;53.448;10.228;2023-10-08T09:03:12;12.60;1.00
318;DHT22;146;53.448;10.228;2023-10-08T09:05:45;12.70;1.00
318;DHT22;146;53.448;10.228;2023-10-08T09:08:47;12.80;1.00
318;DHT22;146;53.448;10.228;2023-10-08T09:11:26;12.90;1.00
318;DHT22;146;53.448;10.228;2023-10-08T09:13:54;12.90;1.00
318;DHT22;146;53.448;10.228;2023-10-08T09:16:24;12.90;1.00
318;DHT22;146;53.448;10.228;2023-10-08T09:18:54;12.90;1.00
318;DHT22;146;53.448;10.228;2023-10-08T09:21:27;13.00;1.00
318;DHT22;146;53.448;10.228;2023-10-08T09:23:57;13.10;1.00
318;DHT22;146;53.448;10.228;2023-10-08T09:26:54;13.10;1.00
318;DHT22;146;53.448;10.228;2023-10-08T09:29:55;13.10;1.00
318;DHT22;146;53.448;10.228;2023-10-08T09:32:25;13.20;1.00
318;DHT22;146;53.448;10.228;2023-10-08T09:34:58;13.20;1.00
318;DHT22;146;53.448;10.228;2023-10-08T09:38:03;13.30;1.00
318;DHT22;146;53.448;10.228;2023-10-08T09:40:33;13.60;1.00
318;DHT22;146;53.448;10.228;2023-10-08T09:43:01;13.60;1.00
318;DHT22;146;53.448;10.228;2023-10-08T09:45:29;13.70;1.00
318;DHT22;146;53.448;10.228;2023-10-08T09:47:59;13.90;1.00
318;DHT22;146;53.448;10.228;2023-10-08T09:50:33;13.90;1.00
318;DHT22;146;53.448;10.228;2023-10-08T09:53:09;14.10;1.00
318;DHT22;146;53.448;10.228;2023-10-08T09:55:55;14.10;1.00
318;DHT22;146;53.448;10.228;2023-10-08T09:58:22;14.10;1.00
318;DHT22;146;53.448;10.228;2023-10-08T10:00:54;14.20;1.00
318;DHT22;146;53.448;10.228;2023-10-08T10:03:22;14.20;1.00
318;DHT22;146;53.448;10.228;2023-10-08T10:05:54;14.30;1.00
318;DHT22;146;53.448;10.228;2023-10-08T10:08:26;14.30;1.00
318;DHT22;146;53.448;10.228;2023-10-08T10:11:01;14.30;1.00
318;DHT22;146;53.448;10.228;2023-10-08T10:13:29;14.50;1.00
318;DHT22;146;53.448;10.228;2023-10-08T10:16:00;14.40;1.00
318;DHT22;146;53.448;10.228;2023-10-08T10:18:33;14.30;1.00
318;DHT22;146;53.448;10.228;2023-10-08T10:21:28;14.40;1.00
318;DHT22;146;53.448;10.228;2023-10-08T10:23:56;14.30;1.00
318;DHT22;146;53.448;10.228;2023-10-08T10:26:28;14.50;1.00
318;DHT22;146;53.448;10.228;2023-10-08T10:29:20;14.60;1.00
318;DHT22;146;53.448;10.228;2023-10-08T10:31:54;15.00;1.00
318;DHT22;146;53.448;10.228;2023-10-08T10:34:24;15.00;1.00
318;DHT22;146;53.448;10.228;2023-10-08T10:36:57;15.10;1.00
318;DHT22;146;53.448;10.228;2023-10-08T10:39:31;15.10;1.00
318;DHT22;146;53.448;10.228;2023-10-08T10:42:03;15.00;1.00
318;DHT22;146;53.448;10.228;2023-10-08T10:44:32;14.90;1.00
318;DHT22;146;53.448;10.228;2023-10-08T10:47:05;14.80;1.00
318;DHT22;146;53.448;10.228;2023-10-08T10:49:53;14.80;1.00
318;DHT22;146;53.448;10.228;2023-10-08T10:52:30;14.60;1.00
318;DHT22;146;53.448;10.228;2023-10-08T10:55:11;14.60;1.00
318;DHT22;146;53.448;10.228;2023-10-08T10:57:50;14.60;1.00
318;DHT22;146;53.448;10.228;2023-10-08T11:00:29;14.70;1.00
318;DHT22;146;53.448;10.228;2023-10-08T11:03:28;14.80;1.00
318;DHT22;146;53.448;10.228;2023-10-08T11:05:57;14.70;1.00
318;DHT22;146;53.448;10.228;2023-10-08T11:08:33;14.70;1.00
318;DHT22;146;53.448;10.228;2023-10-08T11:11:01;14.80;1.00
318;DHT22;146;53.448;10.228;2023-10-08T11:13:33;14.80;1.00
318;DHT22;146;53.448;10.228;2023-10-08T11:16:05;14.90;1.00
318;DHT22;146;53.448;10.228;2023-10-08T11:18:33;14.90;1.00
318;DHT22;146;53.448;10.228;2023-10-08T11:21:10;15.10;1.00
318;DHT22;146;53.448;10.228;2023-10-08T11:23:46;15.10;1.00
318;DHT22;146;53.448;10.228;2023-10-08T11:26:18;15.10;1.00
318;DHT22;146;53.448;10.228;2023-10-08T11:28:47;15.10;1.00
318;DHT22;146;53.448;10.228;2023-10-08T11:31:15;15.30;1.00
318;DHT22;146;53.448;10.228;2023-10-08T11:33:45;15.50;1.00
318;DHT22;146;53.448;10.228;2023-10-08T11:36:19;15.70;1.00
318;DHT22;146;53.448;10.228;2023-10-08T11:38:54;15.90;1.00
318;DHT22;146;53.448;10.228;2023-10-08T11:41:27;15.90;1.00
318;DHT22;146;53.448;10.228;2023-10-08T11:43:56;16.10;1.00
318;DHT22;146;53.448;10.228;2023-10-08T11:46:25;16.40;1.00
318;DHT22;146;53.448;10.228;2023-10-08T11:48:59;16.50;1.00
318;DHT22;146;53.448;10.228;2023-10-08T11:51:30;16.40;1.00
318;DHT22;146;53.448;10.228;2023-10-08T11:54:01;16.50;1.00
318;DHT22;146;53.448;10.228;2023-10-08T11:56:31;16.70;1.00
318;DHT22;146;53.448;10.228;2023-10-08T11:58:59;16.60;1.00
318;DHT22;146;53.448;10.228;2023-10-08T12:01:26;16.50;1.00
318;DHT22;146;53.448;10.228;2023-10-08T12:03:53;16.40;1.00
318;DHT22;146;53.448;10.228;2023-10-08T12:06:25;16.20;1.00
318;DHT22;146;53.448;10.228;2023-10-08T12:08:55;16.40;1.00
318;DHT22;146;53.448;10.228;2023-10-08T12:11:26;16.50;1.00
318;DHT22;146;53.448;10.228;2023-10-08T12:13:57;16.50;1.00
318;DHT22;146;53.448;10.228;2023-10-08T12:16:24;16.40;1.00
318;DHT22;146;53.448;10.228;2023-10-08T12:18:55;16.40;1.00
318;DHT22;146;53.448;10.228;2023-10-08T12:21:26;16.40;1.00
318;DHT22;146;53.448;10.228;2023-10-08T12:23:55;16.40;1.00
318;DHT22;146;53.448;10.228;2023-10-08T12:26:22;16.50;1.00
318;DHT22;146;53.448;10.228;2023-10-08T12:28:51;16.70;1.00
318;DHT22;146;53.448;10.228;2023-10-08T12:31:21;16.60;1.00
318;DHT22;146;53.448;10.228;2023-10-08T12:33:49;16.60;1.00
318;DHT22;146;53.448;10.228;2023-10-08T12:36:19;16.60;1.00
318;DHT22;146;53.448;10.228;2023-10-08T12:38:51;16.60;1.00
318;DHT22;146;53.448;10.228;2023-10-08T12:41:25;16.60;1.00
318;DHT22;146;53.448;10.228;2023-10-08T12:43:54;16.50;1.00
318;DHT22;146;53.448;10.228;2023-10-08T12:46:26;16.50;1.00
318;DHT22;146;53.448;10.228;2023-10-08T12:48:56;16.30;1.00
318;DHT22;146;53.448;10.228;2023-10-08T12:51:27;16.20;1.00
318;DHT22;146;53.448;10.228;2023-10-08T12:54:00;16.10;1.00
318;DHT22;146;53.448;10.228;2023-10-08T12:56:40;15.90;1.00
318;DHT22;146;53.448;10.228;2023-10-08T12:59:18;15.90;1.00
318;DHT22;146;53.448;10.228;2023-10-08T13:01:47;15.90;1.00
318;DHT22;146;53.448;10.228;2023-10-08T13:04:22;16.00;1.00
318;DHT22;146;53.448;10.228;2023-10-08T13:06:59;16.10;1.00
318;DHT22;146;53.448;10.228;2023-10-08T13:09:28;16.10;1.00
318;DHT22;146;53.448;10.228;2023-10-08T13:11:59;16.10;1.00
318;DHT22;146;53.448;10.228;2023-10-08T13:14:33;16.20;1.00
318;DHT22;146;53.448;10.228;2023-10-08T13:17:09;16.30;1.00
318;DHT22;146;53.448;10.228;2023-10-08T13:19:39;16.30;1.00
318;DHT22;146;53.448;10.228;2023-10-08T13:22:06;16.30;1.00
318;DHT22;146;53.448;10.228;2023-10-08T13:24:32;16.30;1.00
318;DHT22;146;53.448;10.228;2023-10-08T13:27:01;16.10;1.00
318;DHT22;146;53.448;10.228;2023-10-08T13:29:36;16.10;1.00
318;DHT22;146;53.448;10.228;2023-10-08T13:32:05;16.10;1.00
318;DHT22;146;53.448;10.228;2023-10-08T13:34:44;16.20;1.00
318;DHT22;146;53.448;10.228;2023-10-08T13:37:11;16.30;1.00
318;DHT22;146;53.448;10.228;2023-10-08T13:39:42;16.40;1.00
318;DHT22;146;53.448;10.228;2023-10-08T13:42:18;16.40;1.00
318;DHT22;146;53.448;10.228;2023-10-08T13:44:47;16.40;1.00
318;DHT22;146;53.448;10.228;2023-10-08T13:47:14;16.50;1.00
318;DHT22;146;53.448;10.228;2023-10-08T13:49:48;16.40;1.00
318;DHT22;146;53.448;10.228;2023-10-08T13:52:19;16.30;1.00
318;DHT22;146;53.448;10.228;2023-10-08T13:54:54;16.30;1.00
318;DHT22;146;53.448;10.228;2023-10-08T13:57:24;16.40;1.00
318;DHT22;146;53.448;10.228;2023-10-08T13:59:53;16.20;1.00
318;DHT22;146;53.448;10.228;2023-10-08T14:02:24;16.20;1.00
318;DHT22;146;53.448;10.228;2023-10-08T14:04:51;16.20;1.00
318;DHT22;146;53.448;10.228;2023-10-08T14:07:25;16.30;1.00
318;DHT22;146;53.448;10.228;2023-10-08T14:10:02;16.30;1.00
318;DHT22;146;53.448;10.228;2023-10-08T14:12:36;16.40;1.00
318;DHT22;146;53.448;10.228;2023-10-08T14:15:10;16.40;1.00
318;DHT22;146;53.448;10.228;2023-10-08T14:17:46;16.40;1.00
318;DHT22;146;53.448;10.228;2023-10-08T14:20:14;16.20;1.00
318;DHT22;146;53.448;10.228;2023-10-08T14:22:54;16.30;1.00
318;DHT22;146;53.448;10.228;2023-10-08T14:25:30;16.20;1.00
318;DHT22;146;53.448;10.228;2023-10-08T14:27:59;16.20;1.00
318;DHT22;146;53.448;10.228;2023-10-08T14:30:31;16.20;1.00
318;DHT22;146;53.448;10.228;2023-10-08T14:33:00;16.30;1.00
318;DHT22;146;53.448;10.228;2023-10-08T14:35:32;16.30;1.00
318;DHT22;146;53.448;10.228;2023-10-08T14:38:19;16.30;1.00
318;DHT22;146;53.448;10.228;2023-10-08T14:41:03;16.20;1.00
318;DHT22;146;53.448;10.228;2023-10-08T14:43:54;16.20;1.00
318;DHT22;146;53.448;10.228;2023-10-08T14:46:34;16.20;1.00
318;DHT22;146;53.448;10.228;2023-10-08T14:49:03;16.10;1.00
318;DHT22;146;53.448;10.228;2023-10-08T14:51:38;16.10;1.00
318;DHT22;146;53.448;10.228;2023-10-08T14:54:07;16.10;1.00
318;DHT22;146;53.448;10.228;2023-10-08T14:56:34;16.00;1.00
318;DHT22;146;53.448;10.228;2023-10-08T14:59:02;15.90;1.00
318;DHT22;146;53.448;10.228;2023-10-08T15:01:42;15.90;1.00
318;DHT22;146;53.448;10.228;2023-10-08T15:04:10;15.90;1.00
318;DHT22;146;53.448;10.228;2023-10-08T15:06:39;15.90;1.00
318;DHT22;146;53.448;10.228;2023-10-08T15:09:12;15.80;1.00
318;DHT22;146;53.448;10.228;2023-10-08T15:11:46;15.80;1.00
318;DHT22;146;53.448;10.228;2023-10-08T15:14:16;15.70;1.00
318;DHT22;146;53.448;10.228;2023-10-08T15:16:46;15.70;1.00
318;DHT22;146;53.448;10.228;2023-10-08T15:19:18;15.60;1.00
318;DHT22;146;53.448;10.228;2023-10-08T15:21:50;15.60;1.00
318;DHT22;146;53.448;10.228;2023-10-08T15:24:22;15.50;1.00
318;DHT22;146;53.448;10.228;2023-10-08T15:26:51;15.50;1.00
318;DHT22;146;53.448;10.228;2023-10-08T15:29:22;15.50;1.00
318;DHT22;146;53.448;10.228;2023-10-08T15:31:59;15.40;1.00
318;DHT22;146;53.448;10.228;2023-10-08T15:34:26;15.40;1.00
318;DHT22;146;53.448;10.228;2023-10-08T15:36:55;15.40;1.00
318;DHT22;146;53.448;10.228;2023-10-08T15:39:22;15.30;1.00
318;DHT22;146;53.448;10.228;2023-10-08T15:41:49;15.20;1.00
318;DHT22;146;53.448;10.228;2023-10-08T15:44:32;15.10;1.00
318;DHT22;146;53.448;10.228;2023-10-08T15:47:01;15.10;1.00
318;DHT22;146;53.448;10.228;2023-10-08T15:49:28;15.00;1.00
318;DHT22;146;53.448;10.228;2023-10-08T15:51:55;15.10;1.00
318;DHT22;146;53.448;10.228;2023-10-08T15:54:21;15.00;1.00
318;DHT22;146;53.448;10.228;2023-10-08T15:56:48;15.00;1.00
318;DHT22;146;53.448;10.228;2023-10-08T15:59:17;15.00;1.00
318;DHT22;146;53.448;10.228;2023-10-08T16:01:44;15.00;1.00
318;DHT22;146;53.448;10.228;2023-10-08T16:04:15;15.00;1.00
318;DHT22;146;53.448;10.228;2023-10-08T16:06:50;15.00;1.00
318;DHT22;146;53.448;10.228;2023-10-08T16:09:24;15.00;1.00
318;DHT22;146;53.448;10.228;2023-10-08T16:11:58;14.90;1.00
318;DHT22;146;53.448;10.228;2023-10-08T16:14:25;14.90;1.00
318;DHT22;146;53.448;10.228;2023-10-08T16:16:59;14.80;1.00
318;DHT22;146;53.448;10.228;2023-10-08T16:19:33;14.80;1.00
318;DHT22;146;53.448;10.228;2023-10-08T16:22:02;14.80;1.00
318;DHT22;146;53.448;10.228;2023-10-08T16:24:29;14.80;1.00
318;DHT22;146;53.448;10.228;2023-10-08T16:26:56;14.80;1.00
318;DHT22;146;53.448;10.228;2023-10-08T16:29:23;14.80;1.00
318;DHT22;146;53.448;10.228;2023-10-08T16:31:50;14.70;1.00
318;DHT22;146;53.448;10.228;2023-10-08T16:34:20;14.60;1.00
318;DHT22;146;53.448;10.228;2023-10-08T16:36:48;14.60;1.00
318;DHT22;146;53.448;10.228;2023-10-08T16:39:15;14.60;1.00
318;DHT22;146;53.448;10.228;2023-10-08T16:41:44;14.50;1.00
318;DHT22;146;53.448;10.228;2023-10-08T16:44:13;14.50;1.00
318;DHT22;146;53.448;10.228;2023-10-08T16:46:43;14.50;1.00
318;DHT22;146;53.448;10.228;2023-10-08T16:49:13;14.50;1.00
318;DHT22;146;53.448;10.228;2023-10-08T16:51:43;14.50;1.00
318;DHT22;146;53.448;10.228;2023-10-08T16:54:18;14.40;1.00
318;DHT22;146;53.448;10.228;2023-10-08T16:56:49;14.40;1.00
318;DHT22;146;53.448;10.228;2023-10-08T16:59:15;14.40;1.00
318;DHT22;146;53.448;10.228;2023-10-08T17:01:59;14.40;1.00
318;DHT22;146;53.448;10.228;2023-10-08T17:04:34;14.40;1.00
318;DHT22;146;53.448;10.228;2023-10-08T17:07:01;14.40;1.00
318;DHT22;146;53.448;10.228;2023-10-08T17:09:31;14.40;1.00
318;DHT22;146;53.448;10.228;2023-10-08T17:11:57;14.30;1.00
318;DHT22;146;53.448;10.228;2023-10-08T17:14:30;14.30;1.00
318;DHT22;146;53.448;10.228;2023-10-08T17:16:57;14.30;1.00
318;DHT22;146;53.448;10.228;2023-10-08T17:19:28;14.30;1.00
318;DHT22;146;53.448;10.228;2023-10-08T17:21:55;14.20;1.00
318;DHT22;146;53.448;10.228;2023-10-08T17:24:35;14.20;1.00
318;DHT22;146;53.448;10.228;2023-10-08T17:27:04;14.30;1.00
318;DHT22;146;53.448;10.228;2023-10-08T17:29:32;14.30;1.00
318;DHT22;146;53.448;10.228;2023-10-08T17:32:01;14.20;1.00
318;DHT22;146;53.448;10.228;2023-10-08T17:34:29;14.30;1.00
318;DHT22;146;53.448;10.228;2023-10-08T17:37:04;14.30;1.00
318;DHT22;146;53.448;10.228;2023-10-08T17:39:44;14.30;1.00
318;DHT22;146;53.448;10.228;2023-10-08T17:42:13;14.30;1.00
318;DHT22;146;53.448;10.228;2023-10-08T17:44:47;14.30;1.00
318;DHT22;146;53.448;10.228;2023-10-08T17:47:14;14.20;1.00
318;DHT22;146;53.448;10.228;2023-10-08T17:49:48;14.20;1.00
318;DHT22;146;53.448;10.228;2023-10-08T17:52:16;14.20;1.00
318;DHT22;146;53.448;10.228;2023-10-08T17:54:50;14.10;1.00
318;DHT22;146;53.448;10.228;2023-10-08T17:57:18;14.10;1.00
318;DHT22;146;53.448;10.228;2023-10-08T17:59:48;14.10;1.00
318;DHT22;146;53.448;10.228;2023-10-08T18:02:14;14.00;1.00
318;DHT22;146;53.448;10.228;2023-10-08T18:04:54;14.00;1.00